createdAt,value
2023-05-23T00:01:55.285Z,12.55
2023-05-23T00:04:27.309Z,12.52
2023-05-23T00:06:54.559Z,12.53
2023-05-23T00:09:21.716Z,12.55
2023-05-23T00:11:48.756Z,12.61
2023-05-23T00:14:16.007Z,12.64
2023-05-23T00:16:45.046Z,12.64
2023-05-23T00:19:15.082Z,12.70
2023-05-23T00:21:49.925Z,12.64
2023-05-23T00:24:19.113Z,12.64
2023-05-23T00:26:47.177Z,12.61
2023-05-23T00:29:18.466Z,12.58
2023-05-23T00:31:48.913Z,12.64
2023-05-23T00:34:19.718Z,12.60
2023-05-23T00:36:50.636Z,12.64
2023-05-23T00:39:21.196Z,12.65
2023-05-23T00:41:53.307Z,12.61
2023-05-23T00:44:22.129Z,12.64
2023-05-23T00:46:57.021Z,12.64
2023-05-23T00:49:24.795Z,12.62
2023-05-23T00:51:52.714Z,12.65
2023-05-23T00:54:29.655Z,12.64
2023-05-23T00:56:56.949Z,12.67
2023-05-23T00:59:27.603Z,12.68
2023-05-23T01:01:57.003Z,12.68
2023-05-23T01:04:26.668Z,12.67
2023-05-23T01:06:57.934Z,12.68
2023-05-23T01:12:25.119Z,12.71
2023-05-23T01:15:09.004Z,12.70
2023-05-23T01:17:50.930Z,12.65
2023-05-23T01:20:29.725Z,12.61
2023-05-23T01:23:00.522Z,12.62
2023-05-23T01:25:46.779Z,12.62
2023-05-23T01:28:19.670Z,12.61
2023-05-23T01:30:52.479Z,12.61
2023-05-23T01:33:21.168Z,12.63
2023-05-23T01:35:49.019Z,12.65
2023-05-23T01:38:16.067Z,12.65
2023-05-23T01:40:43.304Z,12.67
2023-05-23T01:43:10.987Z,12.70
2023-05-23T01:45:38.055Z,12.68
2023-05-23T01:48:06.457Z,12.68
2023-05-23T01:50:34.207Z,12.73
2023-05-23T01:53:01.645Z,12.77
2023-05-23T01:55:29.365Z,12.78
2023-05-23T01:57:57.883Z,12.78
2023-05-23T02:00:25.755Z,12.80
2023-05-23T02:02:53.059Z,12.81
2023-05-23T02:05:20.201Z,12.88
2023-05-23T02:07:47.206Z,12.93
2023-05-23T02:10:14.371Z,12.98
2023-05-23T02:12:41.425Z,13.06
2023-05-23T02:15:09.383Z,13.10
2023-05-23T02:17:36.832Z,13.05
2023-05-23T02:20:04.261Z,13.03
2023-05-23T02:22:31.426Z,13.01
2023-05-23T02:24:58.509Z,12.94
2023-05-23T02:27:25.553Z,12.90
2023-05-23T02:29:52.537Z,12.83
2023-05-23T02:32:19.539Z,12.75
2023-05-23T02:34:50.600Z,12.83
2023-05-23T02:37:17.704Z,12.86
2023-05-23T02:39:44.810Z,12.86
2023-05-23T02:42:11.991Z,12.89
2023-05-23T02:44:39.228Z,12.89
2023-05-23T02:47:07.638Z,12.87
2023-05-23T02:49:34.873Z,12.89
2023-05-23T02:52:02.153Z,12.87
2023-05-23T02:54:29.457Z,12.93
2023-05-23T02:56:57.034Z,12.93
2023-05-23T02:59:24.265Z,12.94
2023-05-23T03:01:51.340Z,12.93
2023-05-23T03:04:18.665Z,12.96
2023-05-23T03:06:45.757Z,12.96
2023-05-23T03:09:12.773Z,12.96
2023-05-23T03:11:40.507Z,12.94
2023-05-23T03:14:07.563Z,12.92
2023-05-23T03:16:34.642Z,12.97
2023-05-23T03:19:01.823Z,12.97
2023-05-23T03:21:29.841Z,12.99
2023-05-23T03:23:56.894Z,12.98
2023-05-23T03:26:24.038Z,12.98
2023-05-23T03:28:51.435Z,12.98
2023-05-23T03:31:19.934Z,12.97
2023-05-23T03:33:47.020Z,13.00
2023-05-23T03:36:14.055Z,12.97
2023-05-23T03:38:42.149Z,12.98
2023-05-23T03:41:09.148Z,13.00
2023-05-23T03:43:36.854Z,13.03
2023-05-23T03:46:04.015Z,13.07
2023-05-23T03:48:31.297Z,13.09
2023-05-23T03:50:58.351Z,13.10
2023-05-23T03:53:25.499Z,13.07
2023-05-23T03:55:54.100Z,13.04
2023-05-23T03:58:21.613Z,13.05
2023-05-23T04:00:53.361Z,13.09
2023-05-23T04:03:21.797Z,13.15
2023-05-23T04:05:50.810Z,13.15
2023-05-23T04:08:22.015Z,13.18
2023-05-23T04:10:50.876Z,13.25
2023-05-23T04:13:18.098Z,13.26
2023-05-23T04:15:46.052Z,13.26
2023-05-23T04:18:15.126Z,13.36
2023-05-23T04:20:43.064Z,13.44
2023-05-23T04:23:11.239Z,13.48
2023-05-23T04:25:41.520Z,13.51
2023-05-23T04:28:14.276Z,13.56
2023-05-23T04:30:42.815Z,13.67
2023-05-23T04:33:10.567Z,13.73
2023-05-23T04:35:41.049Z,13.73
2023-05-23T04:38:09.082Z,13.76
2023-05-23T04:40:36.602Z,13.78
2023-05-23T04:43:22.057Z,13.86
2023-05-23T04:45:55.189Z,13.82
2023-05-23T04:48:36.426Z,13.91
2023-05-23T04:51:06.682Z,13.93
2023-05-23T04:53:37.136Z,14.03
2023-05-23T04:56:04.348Z,14.16
2023-05-23T04:58:32.067Z,14.22
2023-05-23T05:01:03.972Z,14.18
2023-05-23T05:03:31.875Z,14.22
2023-05-23T05:05:59.193Z,14.34
2023-05-23T05:08:26.427Z,14.37
2023-05-23T05:10:55.538Z,14.35
2023-05-23T05:13:23.148Z,14.32
2023-05-23T05:15:53.019Z,14.39
2023-05-23T05:18:20.444Z,14.37
2023-05-23T05:20:47.722Z,14.37
2023-05-23T05:23:16.234Z,14.36
2023-05-23T05:25:43.396Z,14.47
2023-05-23T05:28:10.608Z,14.48
2023-05-23T05:30:46.482Z,14.53
2023-05-23T05:33:14.256Z,14.53
2023-05-23T05:35:41.787Z,14.54
2023-05-23T05:38:11.067Z,14.56
2023-05-23T05:40:39.802Z,14.72
2023-05-23T05:43:07.140Z,15.02
2023-05-23T05:45:34.986Z,15.06
2023-05-23T05:48:02.358Z,15.07
2023-05-23T05:50:30.106Z,15.10
2023-05-23T05:52:57.126Z,15.16
2023-05-23T05:55:24.465Z,15.10
2023-05-23T05:57:54.655Z,15.17
2023-05-23T06:00:22.693Z,15.42
2023-05-23T06:02:57.731Z,15.45
2023-05-23T06:05:39.509Z,15.48
2023-05-23T06:08:06.861Z,15.68
2023-05-23T06:10:34.183Z,15.67
2023-05-23T06:13:02.024Z,15.67
2023-05-23T06:15:30.632Z,15.84
2023-05-23T06:17:57.773Z,15.99
2023-05-23T06:20:26.023Z,16.07
2023-05-23T06:22:54.512Z,16.31
2023-05-23T06:25:21.917Z,16.24
2023-05-23T06:27:50.128Z,16.14
2023-05-23T06:30:17.362Z,16.10
2023-05-23T06:32:45.648Z,16.06
2023-05-23T06:35:12.689Z,16.10
2023-05-23T06:37:43.592Z,16.15
2023-05-23T06:40:11.542Z,16.10
2023-05-23T06:42:38.697Z,16.17
2023-05-23T06:45:18.269Z,16.12
2023-05-23T06:47:45.782Z,16.27
2023-05-23T06:50:12.999Z,16.26
2023-05-23T06:52:42.915Z,16.22
2023-05-23T06:55:14.580Z,16.24
2023-05-23T06:57:41.790Z,16.44
2023-05-23T07:00:09.495Z,16.58
2023-05-23T07:02:46.008Z,16.83
2023-05-23T07:05:13.178Z,16.90
2023-05-23T07:07:47.391Z,17.10
2023-05-23T07:10:15.195Z,17.09
2023-05-23T07:12:42.510Z,17.02
2023-05-23T07:15:11.864Z,16.99
2023-05-23T07:17:48.655Z,16.99
2023-05-23T07:20:16.228Z,16.99
2023-05-23T07:22:45.415Z,16.93
2023-05-23T07:25:12.526Z,17.16
2023-05-23T07:27:40.463Z,17.31
2023-05-23T07:30:09.922Z,17.32
2023-05-23T07:32:38.392Z,17.51
2023-05-23T07:35:07.557Z,17.46
2023-05-23T07:37:34.667Z,17.36
2023-05-23T07:40:01.789Z,17.44
2023-05-23T07:42:28.997Z,17.57
2023-05-23T07:44:56.165Z,17.40
2023-05-23T07:47:24.461Z,17.47
2023-05-23T07:49:53.296Z,17.30
2023-05-23T07:52:22.826Z,17.22
2023-05-23T07:54:49.944Z,17.38
2023-05-23T07:57:18.065Z,17.38
2023-05-23T07:59:45.608Z,17.33
2023-05-23T08:02:12.946Z,17.37
2023-05-23T08:04:41.430Z,17.40
2023-05-23T08:07:09.860Z,17.46
2023-05-23T08:09:57.119Z,17.45
2023-05-23T08:12:24.166Z,17.43
2023-05-23T08:15:00.094Z,17.55
2023-05-23T08:17:36.436Z,17.69
2023-05-23T08:20:05.404Z,17.57
2023-05-23T08:22:32.838Z,17.51
2023-05-23T08:24:59.988Z,17.74
2023-05-23T08:27:30.454Z,18.02
2023-05-23T08:30:04.061Z,18.04
2023-05-23T08:32:31.225Z,18.00
2023-05-23T08:34:58.760Z,18.31
2023-05-23T08:37:26.462Z,18.26
2023-05-23T08:39:53.567Z,18.42
2023-05-23T08:42:40.853Z,18.35
2023-05-23T08:45:10.442Z,18.27
2023-05-23T08:47:39.121Z,18.40
2023-05-23T08:50:08.489Z,18.33
2023-05-23T08:52:38.017Z,18.19
2023-05-23T08:55:06.241Z,18.08
2023-05-23T08:57:36.103Z,17.96
2023-05-23T09:00:20.298Z,18.01
2023-05-23T09:02:48.846Z,17.88
2023-05-23T09:05:36.267Z,17.95
2023-05-23T09:08:03.579Z,18.01
2023-05-23T09:10:30.782Z,17.94
2023-05-23T09:12:59.071Z,17.81
2023-05-23T09:15:27.548Z,18.02
2023-05-23T09:18:01.977Z,17.85
2023-05-23T09:20:30.875Z,18.00
2023-05-23T09:23:06.408Z,17.88
2023-05-23T09:25:35.326Z,18.12
2023-05-23T09:28:04.730Z,18.14
2023-05-23T09:30:34.699Z,18.17
2023-05-23T09:33:05.524Z,18.18
2023-05-23T09:35:34.247Z,18.09
2023-05-23T09:38:01.743Z,18.14
2023-05-23T09:40:33.719Z,18.54
2023-05-23T09:43:05.665Z,19.00
2023-05-23T10:17:37.755Z,18.02
2023-05-23T10:20:10.902Z,18.00
2023-05-23T10:22:38.861Z,17.92
2023-05-23T10:25:07.548Z,17.85
2023-05-23T10:27:34.625Z,17.82
2023-05-23T10:30:02.155Z,17.80
2023-05-23T10:32:31.596Z,17.69
2023-05-23T10:35:18.617Z,17.60
2023-05-23T10:38:09.436Z,17.41
2023-05-23T10:41:08.405Z,17.68
2023-05-23T10:43:48.042Z,17.52
2023-05-23T10:46:16.020Z,17.65
2023-05-23T10:48:44.671Z,16.93
2023-05-23T10:51:15.922Z,16.59
2023-05-23T10:53:47.129Z,17.02
2023-05-23T10:56:24.805Z,16.95
2023-05-23T10:58:55.673Z,16.36
2023-05-23T11:01:23.934Z,16.19
2023-05-23T11:03:55.669Z,16.42
2023-05-23T11:06:30.257Z,16.71
2023-05-23T11:09:13.585Z,17.33
2023-05-23T11:11:49.472Z,16.92
2023-05-23T11:14:17.104Z,17.27
2023-05-23T11:16:49.313Z,17.20
2023-05-23T11:19:19.376Z,17.09
2023-05-23T11:21:49.944Z,17.25
2023-05-23T11:24:17.844Z,17.01
2023-05-23T11:27:00.207Z,17.08
2023-05-23T11:29:29.201Z,17.13
2023-05-23T11:31:57.342Z,16.98
2023-05-23T11:34:27.165Z,16.90
2023-05-23T11:36:57.297Z,16.66
2023-05-23T11:39:24.455Z,16.76
2023-05-23T11:42:01.580Z,16.73
2023-05-23T11:44:29.074Z,16.76
2023-05-23T11:47:07.391Z,16.82
2023-05-23T11:49:38.291Z,17.01
2023-05-23T11:52:06.801Z,17.10
2023-05-23T11:54:33.955Z,17.32
2023-05-23T11:57:02.853Z,17.36
2023-05-23T11:59:30.087Z,17.62
2023-05-23T12:01:57.175Z,18.03
2023-05-23T12:04:26.040Z,17.96
2023-05-23T12:06:53.127Z,18.21
2023-05-23T12:09:20.225Z,18.05
2023-05-23T12:11:48.929Z,18.17
2023-05-23T12:14:17.909Z,18.22
2023-05-23T12:16:47.308Z,18.47
2023-05-23T12:19:17.300Z,18.70
2023-05-23T12:21:49.236Z,19.28
2023-05-23T12:24:19.962Z,19.05
2023-05-23T12:26:58.952Z,19.08
2023-05-23T12:29:35.224Z,19.74
2023-05-23T12:32:04.079Z,20.07
2023-05-23T12:34:31.350Z,19.88
2023-05-23T12:37:14.997Z,19.29
2023-05-23T12:39:46.435Z,18.97
2023-05-23T12:42:13.730Z,18.50
2023-05-23T12:44:43.908Z,19.10
2023-05-23T12:47:11.027Z,19.33
2023-05-23T12:49:38.984Z,18.77
2023-05-23T12:52:06.410Z,18.44
2023-05-23T12:54:33.462Z,18.63
2023-05-23T12:57:00.525Z,18.40
2023-05-23T12:59:27.574Z,18.23
2023-05-23T13:01:55.039Z,18.59
2023-05-23T13:04:22.272Z,19.08
2023-05-23T13:06:49.369Z,19.83
2023-05-23T13:09:16.942Z,20.00
2023-05-23T13:11:44.504Z,20.04
2023-05-23T13:14:11.567Z,19.27
2023-05-23T13:16:39.526Z,19.44
2023-05-23T13:19:07.216Z,19.39
2023-05-23T13:21:34.298Z,19.27
2023-05-23T13:24:01.360Z,19.11
2023-05-23T13:26:28.567Z,19.51
2023-05-23T13:28:55.891Z,20.13
2023-05-23T13:31:22.927Z,20.70
2023-05-23T13:33:50.013Z,20.99
2023-05-23T13:36:17.096Z,20.46
2023-05-23T13:38:44.250Z,20.22
2023-05-23T13:41:11.393Z,18.85
2023-05-23T13:43:38.428Z,18.85
2023-05-23T13:46:05.788Z,20.66
2023-05-23T13:48:32.914Z,21.10
2023-05-23T13:51:01.880Z,20.66
2023-05-23T13:53:28.951Z,20.57
2023-05-23T13:55:56.016Z,20.13
2023-05-23T13:58:23.068Z,19.07
2023-05-23T14:00:50.100Z,18.72
2023-05-23T14:03:19.475Z,19.10
2023-05-23T14:05:46.611Z,19.11
2023-05-23T14:08:14.223Z,18.69
2023-05-23T14:10:42.027Z,18.53
2023-05-23T14:13:09.435Z,18.13
2023-05-23T14:15:38.604Z,18.03
2023-05-23T14:18:05.969Z,17.79
2023-05-23T14:20:33.347Z,17.89
2023-05-23T14:23:00.398Z,18.05
2023-05-23T14:25:27.444Z,18.35
2023-05-23T14:27:54.656Z,18.42
2023-05-23T14:30:21.680Z,18.21
2023-05-23T14:32:49.046Z,18.27
2023-05-23T14:35:16.195Z,18.32
2023-05-23T14:37:43.216Z,18.58
2023-05-23T14:40:10.543Z,18.28
2023-05-23T14:42:38.002Z,18.08
2023-05-23T14:45:05.515Z,18.18
2023-05-23T14:47:32.771Z,18.18
2023-05-23T14:49:59.855Z,18.69
2023-05-23T14:52:26.939Z,18.54
2023-05-23T14:54:54.132Z,18.11
2023-05-23T14:57:21.156Z,17.87
2023-05-23T14:59:48.245Z,18.13
2023-05-23T15:02:15.457Z,18.19
2023-05-23T15:04:42.775Z,18.04
2023-05-23T15:07:09.803Z,18.05
2023-05-23T15:09:36.858Z,18.00
2023-05-23T15:12:05.495Z,17.95
2023-05-23T15:14:32.502Z,17.78
2023-05-23T15:17:07.802Z,17.67
2023-05-23T15:19:38.173Z,17.72
2023-05-23T15:22:05.971Z,17.56
2023-05-23T15:27:11.739Z,17.29
2023-05-23T15:29:46.412Z,16.84
2023-05-23T15:32:13.548Z,16.63
2023-05-23T15:34:40.751Z,16.95
2023-05-23T15:37:07.790Z,17.09
2023-05-23T15:39:35.119Z,16.74
2023-05-23T15:42:02.248Z,17.01
2023-05-23T15:44:29.382Z,17.00
2023-05-23T15:46:56.546Z,17.18
2023-05-23T15:49:26.836Z,16.74
2023-05-23T15:51:55.414Z,16.50
2023-05-23T15:54:23.045Z,16.48
2023-05-23T15:56:50.090Z,16.89
2023-05-23T15:59:17.121Z,16.82
2023-05-23T16:01:44.544Z,16.74
2023-05-23T16:04:11.836Z,16.56
2023-05-23T16:06:39.605Z,16.73
2023-05-23T16:09:06.853Z,16.97
2023-05-23T16:11:33.977Z,16.74
2023-05-23T16:14:01.091Z,16.54
2023-05-23T16:16:28.078Z,16.87
2023-05-23T16:18:55.903Z,16.86
2023-05-23T16:21:23.362Z,17.06
2023-05-23T16:23:50.753Z,16.58
2023-05-23T16:26:19.056Z,16.48
2023-05-23T16:28:46.069Z,16.79
2023-05-23T16:31:15.575Z,16.81
2023-05-23T16:33:46.117Z,16.76
2023-05-23T16:36:13.138Z,16.47
2023-05-23T16:38:40.253Z,16.53
2023-05-23T16:41:07.380Z,16.55
2023-05-23T16:43:34.995Z,16.62
2023-05-23T16:46:02.649Z,16.49
2023-05-23T16:48:29.677Z,16.23
2023-05-23T16:50:57.749Z,16.34
2023-05-23T16:53:25.028Z,16.41
2023-05-23T16:55:52.111Z,16.36
2023-05-23T16:58:21.195Z,16.07
2023-05-23T17:00:48.936Z,15.75
2023-05-23T17:03:16.354Z,15.94
2023-05-23T17:05:43.914Z,16.16
2023-05-23T17:08:11.455Z,16.07
2023-05-23T17:10:38.569Z,15.80
2023-05-23T17:13:05.901Z,15.75
2023-05-23T17:15:33.003Z,15.84
2023-05-23T17:18:00.184Z,15.96
2023-05-23T17:20:27.357Z,15.76
2023-05-23T17:22:55.119Z,15.77
2023-05-23T17:25:22.395Z,15.81
2023-05-23T17:27:49.409Z,15.86
2023-05-23T17:30:18.758Z,15.68
2023-05-23T17:32:47.117Z,15.72
2023-05-23T17:35:14.671Z,15.36
2023-05-23T17:37:43.749Z,15.27
2023-05-23T17:40:11.950Z,15.48
2023-05-23T17:42:42.717Z,15.33
2023-05-23T17:45:10.150Z,15.35
2023-05-23T17:47:37.238Z,15.36
2023-05-23T17:50:08.527Z,15.52
2023-05-23T17:52:35.912Z,15.45
2023-05-23T17:55:03.209Z,15.31
2023-05-23T17:57:31.255Z,15.09
2023-05-23T17:59:59.587Z,14.99
2023-05-23T18:02:29.382Z,15.26
2023-05-23T18:04:56.664Z,15.17
2023-05-23T18:07:23.772Z,15.11
2023-05-23T18:09:50.920Z,15.14
2023-05-23T18:12:18.104Z,15.22
2023-05-23T18:14:45.747Z,14.48
2023-05-23T18:17:13.177Z,14.60
2023-05-23T18:19:40.477Z,14.46
2023-05-23T18:22:07.667Z,14.43
2023-05-23T18:24:34.736Z,14.35
2023-05-23T18:27:03.133Z,14.54
2023-05-23T18:29:30.388Z,13.83
2023-05-23T18:31:57.675Z,14.43
2023-05-23T18:34:26.491Z,14.58
2023-05-23T18:36:54.914Z,14.65
2023-05-23T18:39:22.334Z,14.65
2023-05-23T18:41:49.462Z,14.55
2023-05-23T18:44:20.148Z,14.64
2023-05-23T18:46:48.041Z,14.74
2023-05-23T18:49:15.215Z,14.72
2023-05-23T18:51:42.876Z,14.64
2023-05-23T18:54:09.973Z,14.49
2023-05-23T18:56:37.051Z,14.38
2023-05-23T18:59:04.205Z,14.67
2023-05-23T19:01:31.249Z,14.16
2023-05-23T19:03:58.334Z,13.33
2023-05-23T19:06:25.524Z,13.86
2023-05-23T19:08:52.633Z,14.05
2023-05-23T19:11:19.741Z,14.29
2023-05-23T19:13:46.781Z,13.97
2023-05-23T19:16:13.868Z,13.17
2023-05-23T19:18:40.996Z,13.75
2023-05-23T19:21:07.985Z,13.75
2023-05-23T19:23:35.011Z,13.14
2023-05-23T19:26:02.277Z,12.78
2023-05-23T19:28:29.481Z,12.98
2023-05-23T19:30:56.589Z,13.09
2023-05-23T19:33:23.629Z,13.10
2023-05-23T19:35:51.669Z,12.83
2023-05-23T19:38:19.006Z,13.02
2023-05-23T19:40:47.711Z,12.61
2023-05-23T19:43:15.038Z,12.87
2023-05-23T19:45:42.226Z,12.94
2023-05-23T19:48:09.488Z,12.77
2023-05-23T19:50:36.571Z,12.22
2023-05-23T19:53:03.576Z,12.03
2023-05-23T19:55:30.705Z,12.41
2023-05-23T19:57:57.918Z,12.82
2023-05-23T20:00:25.723Z,12.89
2023-05-23T20:02:52.860Z,12.46
2023-05-23T20:05:20.558Z,12.21
2023-05-23T20:07:47.565Z,12.33
2023-05-23T20:10:15.526Z,12.80
2023-05-23T20:12:42.565Z,13.24
2023-05-23T20:15:09.958Z,13.34
2023-05-23T20:17:37.005Z,13.59
2023-05-23T20:20:04.914Z,13.70
2023-05-23T20:22:31.967Z,13.82
2023-05-23T20:24:59.948Z,13.66
2023-05-23T20:27:27.186Z,13.98
2023-05-23T20:29:54.361Z,13.96
2023-05-23T20:32:21.472Z,13.89
2023-05-23T20:34:48.511Z,14.12
2023-05-23T20:37:15.571Z,14.08
2023-05-23T20:39:42.641Z,13.68
2023-05-23T20:42:15.112Z,12.95
2023-05-23T20:44:42.564Z,13.25
2023-05-23T20:47:12.176Z,13.22
2023-05-23T20:49:40.124Z,13.43
2023-05-23T20:52:07.220Z,13.12
2023-05-23T20:54:35.510Z,12.36
2023-05-23T20:57:02.739Z,12.04
2023-05-23T20:59:32.394Z,11.92
2023-05-23T21:01:59.504Z,11.94
2023-05-23T21:04:26.951Z,12.14
2023-05-23T21:06:54.035Z,11.84
2023-05-23T21:09:21.037Z,11.80
2023-05-23T21:11:48.137Z,11.57
2023-05-23T21:14:15.209Z,11.50
2023-05-23T21:16:42.279Z,11.53
2023-05-23T21:19:09.454Z,11.46
2023-05-23T21:21:37.705Z,11.40
2023-05-23T21:24:06.482Z,11.28
2023-05-23T21:26:33.499Z,11.35
2023-05-23T21:29:00.488Z,11.26
2023-05-23T21:31:40.386Z,10.94
2023-05-23T21:34:22.101Z,10.79
2023-05-23T21:36:51.350Z,10.87
2023-05-23T21:39:18.450Z,10.93
2023-05-23T21:41:45.477Z,11.06
2023-05-23T21:44:13.637Z,11.22
2023-05-23T21:46:40.900Z,11.21
2023-05-23T21:49:07.963Z,11.28
2023-05-23T21:51:34.997Z,11.33
2023-05-23T21:54:02.002Z,11.46
2023-05-23T21:56:29.029Z,11.75
2023-05-23T21:58:56.062Z,12.09
2023-05-23T22:01:23.103Z,12.52
2023-05-23T22:03:50.307Z,11.90
2023-05-23T22:06:17.332Z,12.05
2023-05-23T22:08:46.333Z,12.10
2023-05-23T22:11:13.435Z,11.95
2023-05-23T22:13:40.885Z,11.85
2023-05-23T22:16:08.126Z,11.79
2023-05-23T22:18:51.125Z,11.86
2023-05-23T22:21:19.048Z,11.91
2023-05-23T22:23:46.321Z,11.93
2023-05-23T22:26:14.129Z,12.37
2023-05-23T22:28:41.201Z,11.82
2023-05-23T22:31:09.860Z,11.93
2023-05-23T22:33:39.181Z,11.88
2023-05-23T22:36:06.966Z,11.93
2023-05-23T22:38:34.400Z,11.82
2023-05-23T22:41:01.481Z,11.75
2023-05-23T22:43:29.219Z,11.71
2023-05-23T22:45:56.976Z,11.76
2023-05-23T22:48:28.125Z,11.78
2023-05-23T22:50:55.236Z,11.64
2023-05-23T22:53:24.888Z,11.61
2023-05-23T22:55:51.907Z,11.60
2023-05-23T22:58:18.962Z,11.56
2023-05-23T23:00:46.158Z,11.57
2023-05-23T23:03:15.442Z,11.49
2023-05-23T23:05:42.915Z,11.40
2023-05-23T23:08:10.061Z,11.30
2023-05-23T23:10:37.086Z,11.32
2023-05-23T23:13:04.143Z,11.24
2023-05-23T23:15:34.046Z,11.07
2023-05-23T23:18:01.388Z,11.00
2023-05-23T23:20:28.757Z,11.00
2023-05-23T23:22:56.090Z,10.92
2023-05-23T23:25:23.831Z,11.07
2023-05-23T23:27:51.017Z,10.98
2023-05-23T23:30:18.022Z,10.83
2023-05-23T23:32:44.974Z,10.82
2023-05-23T23:35:12.023Z,10.91
2023-05-23T23:37:39.121Z,11.02
2023-05-23T23:40:08.493Z,11.01
2023-05-23T23:42:35.533Z,10.98
2023-05-23T23:45:02.823Z,10.88
2023-05-23T23:47:29.883Z,10.82
2023-05-23T23:49:56.933Z,10.90
2023-05-23T23:52:24.001Z,10.93
2023-05-23T23:54:51.055Z,10.84
2023-05-23T23:57:18.028Z,10.75
2023-05-23T23:59:45.324Z,10.70
